Terminal Aerodrome Forecast
Issued by NWS

Home | Current Version | Previous Version | Text Only | Print | Product List | Glossary Off
Versions: 1 2 3 4 5 6 7 8 9 10 11 12 13

000
FTUS43 KGRB 182338
TAFRHI
TAF
KRHI 182338Z 1900/1924 19010G16KT P6SM SCT060 OVC110 WS020/21050KT
     FM190300 23005KT P6SM SCT040 OVC080 WS019/23040KT
     FM190900 02006KT P6SM OVC060
     FM191000 02006KT P6SM OVC024
     FM191100 03008KT 5SM BR OVC014
     FM191700 04010G16KT 5SM -SN BR OVC014=

USA.gov is the U.S. government's official web portal to all federal, state and local government web resources and services.